Terminal Aerodrome Forecast
Issued by NWS Grand Forks, ND

Home | Current Version | Previous Version | Graphics & Text | Print | Product List | Glossary On
Versions: 1 2 3 4 5 6 7 8 9 10 11 12 13 14 15 16 17
000
FTUS43 KFGF 280300 AAA
TAFFAR
TAF AMD
KFAR 280324Z 2803/2824 16008KT P6SM OVC050
     FM281500 17013G21KT P6SM BKN040
     FM281800 17020G30KT P6SM SCT120=

USA.gov is the U.S. government's official web portal to all federal, state and local government web resources and services.